Time;durP1;ratioP1;P1;durP2;ratioP2;P2;SDS_P1;SDS_P2;PMS_P1;PMS_P2;Temp;Humidity;BMP_temperature;BMP_pressure;BME280_temperature;BME280_humidity;BME280_pressure;Samples;Min_cycle;Max_cycle;Signal;HPM_P1;HPM_P2
2022/10/04 03:02:29;;;;;;;28.92;4.63;;;;;;;11.66;65.19;101471.47;5722666;23;20056;-69
2022/10/04 03:05:03;;;;;;;25.60;4.13;;;;;;;11.73;65.20;101464.50;4926603;29;20056;-69
2022/10/04 03:07:33;;;;;;;23.77;3.05;;;;;;;11.74;65.13;101476.09;4933764;29;20040;-69
2022/10/04 03:10:01;;;;;;;23.35;3.78;;;;;;;11.66;65.23;101472.31;4934157;29;20058;-69
2022/10/04 03:12:29;;;;;;;13.93;3.80;;;;;;;11.66;65.49;101468.78;4932750;29;20059;-69
2022/10/04 03:14:56;;;;;;;25.00;3.75;;;;;;;11.62;65.55;101470.03;4933347;29;20122;-69
2022/10/04 03:17:22;;;;;;;17.52;3.35;;;;;;;11.62;65.34;101472.72;4933200;29;20048;-69
2022/10/04 03:19:50;;;;;;;28.58;3.58;;;;;;;11.65;65.46;101459.81;4932887;29;20054;-69
2022/10/04 03:22:17;;;;;;;32.30;4.25;;;;;;;11.64;65.38;101470.72;4933209;29;20047;-69
2022/10/04 03:24:47;;;;;;;21.98;3.47;;;;;;;11.58;65.60;101469.47;4933904;29;20044;-69
2022/10/04 03:27:18;;;;;;;26.23;3.65;;;;;;;11.39;66.12;101473.09;4933787;29;20054;-69
2022/10/04 03:29:45;;;;;;;23.45;3.47;;;;;;;11.40;66.00;101469.41;4933922;29;20039;-69
2022/10/04 03:32:15;;;;;;;16.85;3.17;;;;;;;11.52;65.62;101466.53;4933360;29;20051;-69
2022/10/04 03:34:51;;;;;;;21.63;3.83;;;;;;;11.38;65.82;101471.41;4934008;29;20495;-70
2022/10/04 03:37:20;;;;;;;23.75;3.92;;;;;;;11.46;65.57;101473.38;4933148;29;20047;-69
2022/10/04 03:39:49;;;;;;;20.27;3.35;;;;;;;11.40;65.79;101465.88;4932224;29;20050;-69
2022/10/04 03:42:22;;;;;;;23.87;3.40;;;;;;;11.37;65.68;101475.06;5555139;23;20629;-68
2022/10/04 03:44:52;;;;;;;27.13;4.28;;;;;;;11.41;65.31;101471.13;4911535;29;20644;-69
2022/10/04 03:47:24;;;;;;;23.03;3.33;;;;;;;11.37;65.48;101474.25;4901240;29;20075;-70
2022/10/04 03:49:54;;;;;;;27.30;3.75;;;;;;;11.17;66.15;101479.69;4914369;29;20052;-70
2022/10/04 03:52:24;;;;;;;33.53;4.47;;;;;;;11.27;65.89;101479.63;4914219;29;20055;-70
2022/10/04 03:54:54;;;;;;;19.90;3.45;;;;;;;11.27;65.74;101476.94;4914964;29;20116;-70
2022/10/04 03:57:21;;;;;;;25.70;4.18;;;;;;;11.18;65.75;101467.09;4913666;29;20066;-70
2022/10/04 03:59:49;;;;;;;24.67;3.58;;;;;;;11.33;65.72;101480.91;4915053;29;20523;-69
2022/10/04 04:02:31;;;;;;;26.25;3.95;;;;;;;11.35;65.57;101479.78;4915283;29;20108;-70
2022/10/04 04:05:35;;;;;;;25.30;3.25;;;;;;;11.24;65.75;101479.97;4914066;29;20076;-70
2022/10/04 04:08:25;;;;;;;27.80;4.60;;;;;;;11.20;65.80;101481.22;4914173;29;20048;-71
2022/10/04 04:10:55;;;;;;;19.80;3.15;;;;;;;11.26;65.68;101485.16;4914466;29;20055;-70
2022/10/04 04:13:49;;;;;;;21.10;3.75;;;;;;;11.36;65.04;101480.63;4914274;29;20054;-70
2022/10/04 04:16:19;;;;;;;32.22;4.07;;;;;;;11.44;64.71;101483.41;4915084;29;20048;-70
2022/10/04 04:18:48;;;;;;;25.67;3.72;;;;;;;11.45;64.61;101483.28;4914487;29;20056;-70
2022/10/04 04:21:18;;;;;;;22.33;3.50;;;;;;;11.55;64.12;101493.13;4914665;29;20055;-70
2022/10/04 04:23:53;;;;;;;25.70;4.00;;;;;;;11.60;64.11;101491.69;4913772;29;20043;-71
2022/10/04 04:26:31;;;;;;;17.23;3.78;;;;;;;11.56;64.33;101494.81;4914195;29;20044;-69
2022/10/04 04:29:04;;;;;;;19.08;3.13;;;;;;;11.57;64.55;101493.81;4914632;29;20059;-71
2022/10/04 04:31:46;;;;;;;23.67;3.53;;;;;;;11.80;63.66;101489.78;4912212;29;20110;-70
2022/10/04 04:34:23;;;;;;;16.92;4.32;;;;;;;11.34;65.16;101490.66;4923841;29;20437;-70
2022/10/04 04:36:51;;;;;;;21.27;4.68;;;;;;;11.53;64.50;101489.75;4917389;29;20050;-69
2022/10/04 04:39:33;;;;;;;28.13;3.67;;;;;;;11.54;63.98;101488.75;4917491;29;20047;-69
2022/10/04 04:42:04;;;;;;;25.48;3.00;;;;;;;11.73;62.97;101480.63;4911855;29;20098;-71
2022/10/04 04:44:32;;;;;;;18.95;4.10;;;;;;;11.67;63.27;101487.44;4917822;29;20056;-70
2022/10/04 04:46:59;;;;;;;18.83;3.15;;;;;;;11.54;63.56;101483.38;4917225;29;20079;-70
2022/10/04 04:49:30;;;;;;;19.40;3.70;;;;;;;11.49;63.89;101488.34;4917980;29;20125;-69
2022/10/04 04:51:56;;;;;;;21.67;2.90;;;;;;;11.42;64.06;101493.47;4917396;29;20056;-70
2022/10/04 04:54:26;;;;;;;16.50;3.42;;;;;;;11.39;64.19;101499.97;4916994;29;20048;-70
2022/10/04 04:56:54;;;;;;;22.75;2.95;;;;;;;11.39;64.30;101493.75;4916874;29;20514;-70
2022/10/04 04:59:24;;;;;;;14.35;3.13;;;;;;;11.26;64.87;101488.69;4917179;29;20047;-70
2022/10/04 05:01:51;;;;;;;16.00;3.10;;;;;;;11.06;65.40;101497.78;4917521;29;20052;-69
2022/10/04 05:04:20;;;;;;;23.00;3.45;;;;;;;11.10;65.48;101491.13;4917995;29;20548;-71
2022/10/04 05:07:15;;;;;;;13.93;2.25;;;;;;;11.11;65.37;101498.22;4917271;29;20052;-70
2022/10/04 05:09:42;;;;;;;17.80;2.70;;;;;;;11.16;64.82;101504.00;4922255;29;20514;-71
2022/10/04 05:12:18;;;;;;;14.80;3.47;;;;;;;11.16;64.58;101498.63;4917159;29;20051;-70
2022/10/04 05:14:48;;;;;;;21.33;3.17;;;;;;;11.27;64.27;101500.28;4916758;29;20048;-70
2022/10/04 05:17:32;;;;;;;18.42;3.25;;;;;;;11.36;63.72;101494.88;4917297;29;20059;-70
2022/10/04 05:20:01;;;;;;;25.83;3.20;;;;;;;11.50;63.48;101500.78;4916828;29;20052;-70
2022/10/04 05:22:29;;;;;;;25.50;4.57;;;;;;;11.22;63.92;101490.00;4917050;29;20120;-71
2022/10/04 05:25:01;;;;;;;18.10;3.00;;;;;;;11.40;63.76;101504.34;4916207;29;20443;-70
2022/10/04 05:27:35;;;;;;;22.48;3.55;;;;;;;11.57;63.59;101502.72;4917082;29;20059;-70
2022/10/04 05:30:19;;;;;;;18.02;2.88;;;;;;;11.72;62.97;101505.81;4916490;29;20056;-71
2022/10/04 05:33:05;;;;;;;17.20;2.95;;;;;;;11.66;63.27;101501.88;4916663;29;20055;-71
2022/10/04 05:36:08;;;;;;;18.00;2.83;;;;;;;11.63;63.46;101499.47;4916656;29;20048;-70
2022/10/04 05:38:52;;;;;;;29.73;4.35;;;;;;;11.80;63.07;101502.41;4916251;29;20472;-71
2022/10/04 05:41:55;;;;;;;20.70;2.67;;;;;;;11.78;63.26;101499.00;4917251;29;20047;-71
2022/10/04 05:44:34;;;;;;;22.50;3.92;;;;;;;11.88;62.88;101505.16;4901201;29;20044;-70
2022/10/04 05:47:04;;;;;;;12.45;3.15;;;;;;;11.80;63.35;101507.78;4915534;29;20056;-71
2022/10/04 05:49:42;;;;;;;20.98;3.47;;;;;;;11.73;63.68;101510.22;4916314;29;20056;-71
2022/10/04 05:52:23;;;;;;;24.23;3.63;;;;;;;12.00;63.07;101513.88;4916189;29;20048;-71
2022/10/04 05:55:37;;;;;;;18.00;3.70;;;;;;;11.80;63.38;101516.69;4916292;29;20080;-72
2022/10/04 05:58:36;;;;;;;25.63;3.90;;;;;;;11.92;63.13;101511.94;4915619;29;20056;-71
2022/10/04 06:01:18;;;;;;;28.65;4.97;;;;;;;12.01;62.74;101526.34;4915451;29;20059;-71
2022/10/04 06:04:10;;;;;;;22.20;5.72;;;;;;;12.02;62.67;101522.66;4916021;29;20130;-72
2022/10/04 06:06:59;;;;;;;31.73;6.38;;;;;;;12.03;62.63;101516.25;4916136;29;20051;-71
2022/10/04 06:09:45;;;;;;;21.50;5.00;;;;;;;11.87;62.82;101520.47;4915201;29;20048;-70
2022/10/04 06:12:41;;;;;;;13.38;2.92;;;;;;;12.12;62.36;101524.28;4915925;29;20059;-71
2022/10/04 06:15:30;;;;;;;17.17;3.63;;;;;;;12.19;61.82;101521.84;4915252;29;20139;-71
2022/10/04 06:18:29;;;;;;;19.90;3.88;;;;;;;12.30;61.38;101521.59;4915118;29;20063;-71
2022/10/04 06:21:01;;;;;;;23.65;4.57;;;;;;;12.40;61.07;101517.00;4912051;29;20055;-71
2022/10/04 06:23:31;;;;;;;22.60;5.38;;;;;;;12.35;61.27;101516.63;4915760;29;20052;-71
2022/10/04 06:26:06;;;;;;;19.63;3.92;;;;;;;12.52;60.74;101520.34;4915647;29;20067;-70
2022/10/04 06:28:38;;;;;;;18.05;3.53;;;;;;;12.56;60.67;101521.72;4914218;29;20067;-71
2022/10/04 06:31:42;;;;;;;20.23;3.28;;;;;;;12.57;60.70;101526.09;4914336;29;20072;-71
2022/10/04 06:34:34;;;;;;;28.63;4.00;;;;;;;12.48;60.93;101524.31;4920164;29;20538;-71
2022/10/04 06:37:25;;;;;;;18.05;3.92;;;;;;;12.26;61.61;101531.00;4913692;29;20067;-71
2022/10/04 06:40:16;;;;;;;27.08;4.75;;;;;;;12.30;61.34;101531.53;4915055;29;20063;-71
2022/10/04 06:42:55;;;;;;;15.13;3.20;;;;;;;12.18;62.01;101536.28;4913506;29;20052;-71
2022/10/04 06:45:33;;;;;;;15.75;2.70;;;;;;;12.38;61.31;101531.59;4915458;29;20044;-71
2022/10/04 06:48:41;;;;;;;19.60;4.22;;;;;;;12.47;61.23;101537.94;4914601;29;20158;-71
2022/10/04 06:51:44;;;;;;;17.08;3.40;;;;;;;12.39;61.42;101541.41;4914357;29;20051;-71
2022/10/04 06:54:30;;;;;;;16.90;3.78;;;;;;;12.39;61.41;101544.09;4914386;29;20052;-71
2022/10/04 06:57:03;;;;;;;21.25;3.00;;;;;;;12.43;61.04;101545.47;4914900;29;20123;-70
2022/10/04 06:59:38;;;;;;;20.58;3.50;;;;;;;12.40;61.62;101540.38;4912916;29;20044;-70
2022/10/04 07:02:13;;;;;;;22.85;3.38;;;;;;;12.45;61.51;101550.69;4914351;29;20504;-70
2022/10/04 07:04:43;;;;;;;16.75;3.55;;;;;;;12.52;61.32;101554.47;4914085;29;20508;-71
2022/10/04 07:07:34;;;;;;;17.88;3.38;;;;;;;12.53;61.29;101548.09;4913943;29;20103;-71
2022/10/04 07:10:22;;;;;;;17.17;4.05;;;;;;;12.47;61.92;101544.16;4913973;29;20052;-71
2022/10/04 07:13:17;;;;;;;15.65;3.38;;;;;;;12.59;61.66;101547.47;4913650;29;20412;-71
2022/10/04 07:15:56;;;;;;;21.08;3.90;;;;;;;12.60;61.62;101551.88;4910246;29;20040;-72
2022/10/04 07:18:28;;;;;;;16.25;3.50;;;;;;;12.84;60.79;101546.75;4914091;29;20492;-72
2022/10/04 07:21:05;;;;;;;21.85;3.50;;;;;;;12.91;60.64;101548.81;4913921;29;20419;-72
2022/10/04 07:23:42;;;;;;;23.38;3.25;;;;;;;12.76;60.95;101559.25;4914167;29;20060;-71
2022/10/04 07:26:22;;;;;;;17.55;4.05;;;;;;;12.92;60.40;101563.97;4913622;29;20059;-71
2022/10/04 07:31:37;;;;;;;20.02;3.75;;;;;;;12.90;60.74;101571.34;4914094;29;20480;-71
2022/10/04 07:34:16;;;;;;;16.50;3.55;;;;;;;12.93;60.70;101579.13;4913606;29;20051;-71
2022/10/04 07:36:45;;;;;;;19.15;3.97;;;;;;;12.95;60.72;101571.75;4913554;29;20059;-71
2022/10/04 07:39:33;;;;;;;20.02;4.20;;;;;;;12.99;60.37;101575.81;4913274;29;20084;-71
2022/10/04 07:42:18;;;;;;;16.63;4.03;;;;;;;12.99;60.59;101575.81;4893903;29;20044;-71
2022/10/04 07:44:57;;;;;;;19.65;3.78;;;;;;;12.86;60.80;101568.94;4895005;29;20040;-70
2022/10/04 07:47:26;;;;;;;18.25;4.20;;;;;;;12.95;60.24;101571.75;4894535;29;20052;-70
2022/10/04 07:49:53;;;;;;;17.50;3.92;;;;;;;13.02;60.06;101576.34;4894223;29;20422;-71
2022/10/04 07:52:23;;;;;;;18.85;5.30;;;;;;;12.73;61.01;101581.94;4881625;29;20521;-71
2022/10/04 07:54:55;;;;;;;16.52;4.18;;;;;;;12.75;60.58;101579.13;4875477;29;20390;-71
2022/10/04 07:57:39;;;;;;;20.77;4.43;;;;;;;12.81;60.51;101579.34;4875751;29;20057;-72
2022/10/04 08:00:34;;;;;;;18.58;4.45;;;;;;;13.08;59.38;101580.28;4876239;29;20045;-71
2022/10/04 08:03:29;;;;;;;20.75;4.95;;;;;;;12.70;60.34;101582.25;4875655;29;20052;-71
2022/10/04 08:06:23;;;;;;;21.45;5.38;;;;;;;13.10;59.31;101591.72;4866951;29;20365;-71
2022/10/04 08:09:28;;;;;;;20.60;6.15;;;;;;;13.23;59.13;101589.47;4875852;29;20064;-71
2022/10/04 08:12:19;;;;;;;17.05;4.97;;;;;;;13.29;59.42;101598.78;4876752;29;20090;-72
2022/10/04 08:14:52;;;;;;;11.63;5.15;;;;;;;13.64;58.44;101602.41;4879849;29;20490;-72
2022/10/04 08:17:27;;;;;;;16.92;4.35;;;;;;;13.69;58.15;101600.91;4879332;29;20049;-72
2022/10/04 08:20:02;;;;;;;13.77;5.22;;;;;;;13.77;57.97;101603.69;4880193;29;20083;-71
2022/10/04 08:22:29;;;;;;;20.88;5.28;;;;;;;13.93;57.55;101605.63;4875923;29;20079;-72
2022/10/04 08:25:38;;;;;;;17.67;5.22;;;;;;;14.29;56.22;101606.31;4879378;29;20049;-72
2022/10/04 08:31:51;;;;;;;22.95;8.18;;;;;;;14.56;54.91;101609.75;4879921;29;21783;-72
2022/10/04 08:35:02;;;;;;;20.58;5.97;;;;;;;14.62;54.52;101611.78;4880020;29;20059;-71
2022/10/04 08:38:02;;;;;;;16.55;4.45;;;;;;;14.94;54.00;101604.78;4880391;29;20385;-71
2022/10/04 08:41:00;;;;;;;10.52;3.08;;;;;;;15.36;52.53;101606.47;4879846;29;20041;-72
2022/10/04 08:44:04;;;;;;;13.35;4.00;;;;;;;15.63;51.88;101608.00;4888869;29;20120;-71
2022/10/04 08:47:32;;;;;;;14.43;3.22;;;;;;;15.47;51.61;101604.28;4886615;29;20071;-72
2022/10/04 08:50:08;;;;;;;13.05;3.45;;;;;;;15.44;51.79;101603.78;4805792;29;20070;-71
2022/10/04 08:53:06;;;;;;;13.15;3.88;;;;;;;15.94;51.00;101608.09;4869639;29;20505;-70
2022/10/04 08:55:36;;;;;;;;;;;;;;;15.84;50.82;101610.97;4877682;29;20051;-73
2022/10/04 08:58:29;;;;;;;7.45;2.95;;;;;;;15.08;52.53;101609.50;4877942;29;19923;-74
2022/10/04 09:01:25;;;;;;;8.48;3.00;;;;;;;15.51;51.39;101610.19;4877422;29;20511;-75
2022/10/04 09:04:23;;;;;;;12.98;4.30;;;;;;;16.02;50.73;101605.38;4876653;29;20459;-73
2022/10/04 09:07:02;;;;;;;6.95;2.70;;;;;;;16.18;50.21;101602.56;4877609;29;20053;-74
2022/10/04 09:10:05;;;;;;;9.65;2.60;;;;;;;17.22;47.97;101610.41;4877835;29;20049;-74
2022/10/04 09:12:54;;;;;;;10.88;2.72;;;;;;;17.98;45.97;101612.03;4877092;29;20048;-73
2022/10/04 09:15:30;;;;;;;8.23;2.17;;;;;;;18.04;45.72;101610.47;4876859;29;20082;-74
2022/10/04 09:18:11;;;;;;;7.55;2.28;;;;;;;18.26;44.93;101608.69;4877242;29;20044;-74
2022/10/04 09:21:15;;;;;;;10.35;2.30;;;;;;;18.38;44.01;101612.63;4855549;29;20497;-73
2022/10/04 09:24:20;;;;;;;11.45;2.40;;;;;;;17.90;45.12;101612.16;4861554;29;20059;-73
2022/10/04 09:26:58;;;;;;;12.45;2.72;;;;;;;17.79;44.86;101618.06;4879978;29;20048;-74
2022/10/04 09:29:39;;;;;;;13.40;2.85;;;;;;;17.19;46.23;101610.78;4879687;29;20060;-74
2022/10/04 09:32:58;;;;;;;10.00;3.35;;;;;;;17.19;46.55;101606.19;4879583;29;20045;-71
2022/10/04 09:35:43;;;;;;;9.43;2.85;;;;;;;16.78;47.97;101611.06;4840766;29;20058;-74
2022/10/04 09:38:41;;;;;;;7.30;2.70;;;;;;;16.34;49.14;101606.25;4840130;29;20494;-72
2022/10/04 09:41:33;;;;;;;11.63;2.65;;;;;;;16.42;49.38;101611.59;4839843;29;20065;-74
2022/10/04 09:44:18;;;;;;;;;;;;;;;17.12;47.91;101603.38;4840215;29;20050;-73
2022/10/04 09:47:05;;;;;;;8.98;3.58;;;;;;;17.07;48.45;101604.97;4839355;29;19924;-70
2022/10/04 09:49:53;;;;;;;15.57;3.92;;;;;;;16.98;48.59;101604.16;4840150;29;20057;-73
2022/10/04 09:52:47;;;;;;;14.95;3.42;;;;;;;17.12;48.12;101600.66;4852498;29;20056;-72
2022/10/04 09:55:32;;;;;;;10.73;3.08;;;;;;;17.46;47.16;101602.09;4857844;29;20057;-71
2022/10/04 09:58:04;;;;;;;14.55;3.22;;;;;;;17.77;46.66;101609.25;4857560;29;20052;-73
2022/10/04 10:00:42;;;;;;;12.85;3.17;;;;;;;17.22;47.80;101602.28;4858782;29;20056;-73
2022/10/04 10:03:20;;;;;;;10.65;3.10;;;;;;;16.78;48.62;101594.81;4858074;29;20056;-73
2022/10/04 10:05:59;;;;;;;8.48;2.78;;;;;;;17.28;47.24;101605.09;4871261;29;20048;-73
2022/10/04 10:08:44;;;;;;;10.57;2.88;;;;;;;16.73;48.29;101591.81;4897778;29;20060;-73
2022/10/04 10:15:06;;;;;;;11.98;2.67;;;;;;;17.01;47.69;101601.09;4897472;29;20041;-73
2022/10/04 10:17:50;;;;;;;14.20;3.42;;;;;;;17.40;46.91;101602.81;4897239;29;20045;-74
2022/10/04 10:20:38;;;;;;;8.95;2.70;;;;;;;17.58;46.52;101608.75;4897398;29;20512;-72
2022/10/04 10:23:30;;;;;;;13.07;2.92;;;;;;;17.14;47.23;101604.03;4897274;29;20044;-74
2022/10/04 10:26:08;;;;;;;20.88;3.28;;;;;;;17.52;46.39;101606.78;4897067;29;20056;-73
2022/10/04 10:28:50;;;;;;;13.45;3.20;;;;;;;17.27;47.04;101599.88;4897121;29;20048;-74
2022/10/04 10:31:23;;;;;;;15.80;3.10;;;;;;;17.61;46.38;101602.09;4896400;29;20053;-73
2022/10/04 10:34:28;;;;;;;14.65;3.13;;;;;;;17.70;46.09;101606.44;4896389;29;20398;-70
2022/10/04 10:37:02;;;;;;;9.05;2.65;;;;;;;17.54;46.30;101603.88;4896744;29;20056;-73
2022/10/04 10:40:06;;;;;;;11.80;3.00;;;;;;;17.20;47.62;101601.59;4897259;29;20071;-73
2022/10/04 10:43:03;;;;;;;10.55;2.72;;;;;;;18.22;45.08;101610.09;4895722;29;20080;-72
2022/10/04 10:45:45;;;;;;;14.40;3.35;;;;;;;17.71;46.77;101602.66;4896950;29;20047;-71
2022/10/04 10:48:19;;;;;;;10.00;3.22;;;;;;;17.79;46.17;101612.63;4896922;29;20064;-72
2022/10/04 10:51:19;;;;;;;15.25;3.30;;;;;;;18.13;44.91;101603.03;4896731;29;20126;-73
2022/10/04 10:54:04;;;;;;;14.43;2.67;;;;;;;17.98;45.37;101601.19;4914000;29;20488;-72
2022/10/04 10:57:22;;;;;;;9.98;2.90;;;;;;;18.70;44.08;101605.03;4915116;29;20048;-73
2022/10/04 11:00:16;;;;;;;15.95;2.65;;;;;;;18.16;45.21;101605.41;4875281;29;20045;-72
2022/10/04 11:03:20;;;;;;;14.05;2.78;;;;;;;17.93;45.47;101597.38;4875061;29;20052;-73
2022/10/04 11:06:20;;;;;;;16.98;2.90;;;;;;;17.34;46.96;101604.41;4875363;29;20049;-73
2022/10/04 11:09:13;;;;;;;17.40;2.83;;;;;;;18.67;43.78;101608.13;4874991;29;20068;-72
2022/10/04 11:12:04;;;;;;;15.27;2.92;;;;;;;18.14;44.60;101610.19;4874868;29;20045;-72
2022/10/04 11:15:08;;;;;;;13.95;2.67;;;;;;;18.19;44.49;101603.16;4874818;29;20071;-72
2022/10/04 11:17:47;;;;;;;16.17;2.90;;;;;;;18.22;44.36;101601.94;4874641;29;20056;-73
2022/10/04 11:20:24;;;;;;;18.23;5.45;;;;;;;18.36;44.18;101614.66;4865233;29;20446;-72
2022/10/04 11:23:12;;;;;;;22.08;7.63;;;;;;;18.12;44.76;101614.94;4874095;29;20056;-73
2022/10/04 11:26:42;;;;;;;17.83;4.13;;;;;;;19.15;43.05;101608.44;4871518;29;20052;-72
2022/10/04 11:29:24;;;;;;;12.48;2.80;;;;;;;20.34;39.89;101602.94;4819468;29;20057;-72
2022/10/04 11:32:00;;;;;;;16.67;3.33;;;;;;;19.93;40.72;101598.34;4819147;29;20077;-72
2022/10/04 11:34:58;;;;;;;11.38;2.75;;;;;;;19.59;41.16;101583.66;4866271;29;20045;-73
2022/10/04 11:37:46;;;;;;;13.10;3.13;;;;;;;20.07;40.04;101585.63;4874605;29;20056;-73
2022/10/04 11:40:31;;;;;;;15.35;3.33;;;;;;;18.97;42.75;101585.25;4874835;29;20513;-73
2022/10/04 11:43:06;;;;;;;11.35;3.25;;;;;;;19.37;41.27;101579.31;4873989;29;20060;-73
2022/10/04 11:45:37;;;;;;;17.55;2.78;;;;;;;18.91;42.77;101583.28;4873639;29;20112;-73
2022/10/04 11:48:30;;;;;;;8.85;2.03;;;;;;;18.70;43.08;101578.69;4865800;29;20064;-74
2022/10/04 11:51:27;;;;;;;14.77;3.10;;;;;;;18.73;42.50;101574.75;4874173;29;20049;-73
2022/10/04 11:54:48;;;;;;;12.60;3.65;;;;;;;17.80;44.58;101576.31;4874465;29;20479;-75
2022/10/04 11:57:37;;;;;;;15.50;2.65;;;;;;;17.52;45.21;101574.22;4873846;29;20053;-72
2022/10/04 12:00:19;;;;;;;18.23;2.85;;;;;;;17.94;44.10;101574.63;4873887;29;20061;-72
2022/10/04 12:03:23;;;;;;;11.32;2.17;;;;;;;17.56;45.21;101580.13;4866758;29;20045;-71
2022/10/04 12:06:02;;;;;;;12.07;3.38;;;;;;;17.56;44.91;101572.81;4878717;29;20113;-72
2022/10/04 12:09:03;;;;;;;16.05;3.20;;;;;;;16.92;46.32;101561.53;4895157;29;20059;-72
2022/10/04 12:15:02;;;;;;;16.50;2.30;;;;;;;18.11;44.57;101558.97;4894341;29;20122;-73
2022/10/04 12:18:06;;;;;;;13.52;2.25;;;;;;;18.92;42.41;101557.78;4881355;29;20041;-73
2022/10/04 12:20:52;;;;;;;11.27;2.35;;;;;;;18.80;42.42;101553.91;4893704;29;20048;-71
2022/10/04 12:23:37;;;;;;;10.82;2.35;;;;;;;19.37;41.59;101563.81;4895077;29;20508;-73
2022/10/04 12:26:41;;;;;;;7.88;2.40;;;;;;;19.73;40.77;101551.97;4880170;29;20057;-69
2022/10/04 12:29:08;;;;;;;11.18;2.22;;;;;;;20.08;39.61;101550.03;4875598;29;20068;-68
2022/10/04 12:31:52;;;;;;;10.27;1.95;;;;;;;19.45;40.45;101543.78;4875908;29;20785;-69
2022/10/04 12:34:45;;;;;;;7.90;2.13;;;;;;;19.63;40.76;101540.56;4876532;29;20072;-69
2022/10/04 12:37:17;;;;;;;11.20;2.30;;;;;;;20.54;38.35;101549.34;4875394;29;20405;-68
2022/10/04 12:40:08;;;;;;;13.95;2.53;;;;;;;21.75;36.40;101551.88;4875283;29;20048;-69
2022/10/04 12:43:01;;;;;;;14.05;2.28;;;;;;;22.56;34.64;101553.22;4875474;29;20516;-69
2022/10/04 12:45:51;;;;;;;7.15;2.10;;;;;;;22.16;34.73;101552.59;4884618;29;20044;-68
2022/10/04 12:48:50;;;;;;;13.55;2.53;;;;;;;21.25;36.95;101556.13;4894087;29;20101;-69
2022/10/04 12:51:41;;;;;;;10.05;2.13;;;;;;;20.98;37.46;101542.50;4878003;29;20055;-69
2022/10/04 12:54:21;;;;;;;5.43;2.10;;;;;;;20.53;38.60;101544.13;4909911;29;20496;-68
2022/10/04 12:57:44;;;;;;;16.90;3.00;;;;;;;20.08;38.51;101543.75;4879312;29;20442;-69
2022/10/04 13:00:22;;;;;;;17.13;2.38;;;;;;;19.34;40.39;101537.00;4835619;29;20058;-69
2022/10/04 13:03:13;;;;;;;9.85;2.10;;;;;;;19.38;39.59;101532.00;4840551;29;20061;-69
2022/10/04 13:05:45;;;;;;;16.13;2.33;;;;;;;19.72;39.24;101544.81;4840084;29;20046;-68
2022/10/04 13:08:14;;;;;;;13.45;2.15;;;;;;;19.46;39.66;101546.31;4858634;29;20046;-69
2022/10/04 13:10:59;;;;;;;11.30;2.10;;;;;;;18.86;40.79;101530.50;4858468;29;20072;-69
2022/10/04 13:13:53;;;;;;;11.45;2.17;;;;;;;19.21;40.57;101536.94;4857975;29;20050;-68
2022/10/04 13:16:34;;;;;;;13.43;3.38;;;;;;;18.25;41.83;101533.66;4858580;29;20049;-72
2022/10/04 13:19:49;;;;;;;7.60;1.67;;;;;;;17.92;42.44;101531.34;4857188;29;20501;-74
2022/10/04 13:22:41;;;;;;;13.15;2.65;;;;;;;18.16;42.01;101522.06;4858075;29;20061;-71
2022/10/04 13:25:27;;;;;;;10.57;2.03;;;;;;;18.41;41.41;101514.44;4858911;29;20049;-72
2022/10/04 13:28:04;;;;;;;10.98;2.40;;;;;;;17.91;43.31;101510.66;4858715;29;20060;-72
2022/10/04 13:30:43;;;;;;;8.82;1.63;;;;;;;17.88;42.66;101504.78;4864393;29;20052;-72
2022/10/04 13:33:23;;;;;;;8.18;1.73;;;;;;;18.18;42.13;101502.88;4878718;29;20065;-74
2022/10/04 13:35:57;;;;;;;11.95;2.10;;;;;;;17.73;43.17;101502.09;4878801;29;20048;-73
2022/10/04 13:38:53;;;;;;;11.18;1.90;;;;;;;17.83;42.96;101506.19;4879842;29;20501;-73
2022/10/04 13:41:28;;;;;;;9.73;2.20;;;;;;;18.24;42.50;101504.84;4877966;29;20406;-72
2022/10/04 13:44:14;;;;;;;15.32;2.15;;;;;;;18.18;42.21;101498.28;4878653;29;20055;-72
2022/10/04 13:46:59;;;;;;;11.95;2.00;;;;;;;18.06;43.26;101497.94;4877752;29;20047;-72
2022/10/04 13:49:29;;;;;;;11.90;1.80;;;;;;;18.06;43.40;101488.91;4878519;29;20045;-74
2022/10/04 13:58:44;;;;;;;10.90;2.03;;;;;;;17.76;43.52;101489.00;4907449;29;20044;-71
2022/10/04 14:01:32;;;;;;;12.55;2.40;;;;;;;17.58;43.55;101483.97;4915566;29;20040;-71
2022/10/04 14:04:29;;;;;;;8.57;1.98;;;;;;;17.55;43.63;101486.19;4915848;29;20055;-73
2022/10/04 14:07:17;;;;;;;6.80;1.92;;;;;;;17.23;43.54;101468.38;4915093;29;20071;-73
2022/10/04 14:10:21;;;;;;;10.52;2.15;;;;;;;17.41;43.65;101468.91;4915571;29;20048;-72
2022/10/04 14:12:48;;;;;;;15.02;2.17;;;;;;;17.26;44.04;101466.13;4916042;29;20040;-72
2022/10/04 14:15:38;;;;;;;6.50;2.10;;;;;;;17.02;44.79;101463.69;4915573;29;20048;-73
2022/10/04 14:18:19;;;;;;;9.82;1.60;;;;;;;17.18;44.09;101460.81;4915850;29;20056;-70
2022/10/04 14:21:01;;;;;;;15.23;2.15;;;;;;;17.26;43.98;101459.88;4916416;29;20155;-73
2022/10/04 14:23:44;;;;;;;12.60;1.83;;;;;;;17.34;43.45;101457.97;4916543;29;20070;-73
2022/10/04 14:26:25;;;;;;;9.52;2.55;;;;;;;17.12;44.12;101456.97;4915660;29;20515;-72
2022/10/04 14:29:29;;;;;;;5.07;1.85;;;;;;;16.89;44.78;101457.03;4916297;29;20048;-72
2022/10/04 14:32:13;;;;;;;6.80;1.70;;;;;;;16.74;45.02;101452.59;4914833;29;20052;-72
2022/10/04 14:34:46;;;;;;;16.02;5.60;;;;;;;16.45;45.48;101456.88;4916050;29;20048;-72
2022/10/04 14:37:37;;;;;;;7.38;2.10;;;;;;;16.60;45.10;101455.09;4915749;29;20051;-74
2022/10/04 14:40:19;;;;;;;10.43;1.85;;;;;;;16.83;44.58;101454.22;4916019;29;20051;-72
2022/10/04 14:43:18;;;;;;;15.30;2.85;;;;;;;16.76;45.29;101448.69;4915411;29;20047;-73
2022/10/04 14:46:17;;;;;;;7.30;1.58;;;;;;;16.38;46.24;101455.91;4914656;29;20040;-74
2022/10/04 14:49:23;;;;;;;9.57;1.70;;;;;;;16.33;46.22;101447.47;4914867;29;20424;-68
2022/10/04 14:52:20;;;;;;;7.10;1.45;;;;;;;16.18;46.69;101437.44;4915365;29;20048;-71
2022/10/04 14:55:09;;;;;;;6.35;1.50;;;;;;;16.24;46.66;101443.16;4914467;29;20048;-72
2022/10/04 14:58:04;;;;;;;8.13;1.65;;;;;;;16.16;47.19;101431.38;4915643;29;20400;-69
2022/10/04 15:00:59;;;;;;;8.25;1.55;;;;;;;16.01;47.71;101432.31;4915280;29;20054;-71
2022/10/04 15:03:48;;;;;;;8.07;1.70;;;;;;;15.59;48.22;101428.13;4914985;29;20098;-73
2022/10/04 15:06:47;;;;;;;7.15;1.50;;;;;;;15.91;47.79;101419.84;4882492;29;20059;-72
2022/10/04 15:09:17;;;;;;;12.30;2.28;;;;;;;16.02;47.67;101415.03;4883622;29;20080;-71
2022/10/04 15:12:05;;;;;;;9.35;2.20;;;;;;;15.97;47.70;101415.59;4895934;29;20060;-72
2022/10/04 15:15:13;;;;;;;13.68;3.35;;;;;;;16.00;47.96;101409.00;4895336;29;20052;-73
2022/10/04 15:17:54;;;;;;;8.63;2.00;;;;;;;15.70;48.57;101404.25;4894061;29;20493;-71
2022/10/04 15:20:29;;;;;;;14.50;2.65;;;;;;;16.00;48.22;101415.22;4892151;29;20437;-72
2022/10/04 15:23:27;;;;;;;6.05;2.13;;;;;;;15.94;48.64;101415.94;4894361;29;20148;-72
2022/10/04 15:26:02;;;;;;;9.15;2.20;;;;;;;15.83;48.61;101413.66;4895387;29;20052;-73
2022/10/04 15:28:44;;;;;;;6.25;1.80;;;;;;;15.69;48.67;101410.69;4894780;29;20072;-72
2022/10/04 15:31:19;;;;;;;7.32;2.05;;;;;;;15.59;48.86;101415.44;4895932;29;20469;-72
2022/10/04 15:34:13;;;;;;;11.13;1.73;;;;;;;15.81;48.42;101410.28;4895084;29;20113;-72
2022/10/04 15:37:10;;;;;;;9.68;2.25;;;;;;;15.94;48.03;101422.19;4893628;29;20136;-72
2022/10/04 15:40:09;;;;;;;7.88;2.75;;;;;;;15.85;48.30;101419.75;4893444;29;20409;-71
2022/10/04 15:42:37;;;;;;;8.23;2.08;;;;;;;15.79;48.21;101432.09;4890706;29;20400;-72
2022/10/04 15:45:11;;;;;;;9.85;1.98;;;;;;;15.86;48.45;101434.94;4894106;29;20394;-73
2022/10/04 15:48:07;;;;;;;13.20;2.30;;;;;;;15.53;49.01;101426.94;4886739;29;20068;-69
2022/10/04 15:50:56;;;;;;;10.70;1.70;;;;;;;15.64;48.88;101429.31;4893718;29;20045;-72
2022/10/04 15:54:02;;;;;;;11.45;2.20;;;;;;;15.38;49.47;101432.25;4873782;29;20048;-71
2022/10/04 15:57:10;;;;;;;8.98;1.92;;;;;;;15.54;49.37;101431.34;4874664;29;20060;-72
2022/10/04 15:59:55;;;;;;;17.42;6.88;;;;;;;15.24;50.21;101430.28;4863332;29;20041;-71